Time;durP1;ratioP1;P1;durP2;ratioP2;P2;SDS_P1;SDS_P2;PMS_P1;PMS_P2;Temp;Humidity;BMP_temperature;BMP_pressure;BME280_temperature;BME280_humidity;BME280_pressure;Samples;Min_cycle;Max_cycle;Signal;HPM_P1;HPM_P2
2023/08/03 00:01:56;;;;;;;0.50;0.40;;;;;;;;;;101526;297;22569;-31
2023/08/03 00:04:22;;;;;;;1.00;0.50;;;;;;;;;;101360;298;22883;-40
2023/08/03 00:06:47;;;;;;;2.30;0.50;;;;;;;;;;101423;298;22599;-37
2023/08/03 00:09:13;;;;;;;5.30;0.80;;;;;;;;;;101276;298;22595;-31
2023/08/03 00:11:38;;;;;;;0.60;0.30;;;;;;;;;;101474;297;23037;-35
2023/08/03 00:14:04;;;;;;;0.90;0.50;;;;;;;;;;101330;297;24146;-35
2023/08/03 00:16:29;;;;;;;1.40;0.70;;;;;;;;;;101363;298;24147;-35
2023/08/03 00:18:55;;;;;;;0.80;0.40;;;;;;;;;;101428;298;22731;-31
2023/08/03 00:21:20;;;;;;;0.40;0.40;;;;;;;;;;101439;298;22668;-31
2023/08/03 00:23:46;;;;;;;1.70;0.70;;;;;;;;;;101449;298;24237;-35
2023/08/03 00:26:11;;;;;;;1.50;0.70;;;;;;;;;;101298;298;22991;-32
2023/08/03 00:28:37;;;;;;;2.40;0.60;;;;;;;;;;101436;298;22886;-31
2023/08/03 00:31:02;;;;;;;0.20;0.20;;;;;;;;;;101390;298;22732;-30
2023/08/03 00:33:28;;;;;;;1.50;0.40;;;;;;;;;;101506;297;22868;-35
2023/08/03 00:35:53;;;;;;;1.00;0.60;;;;;;;;;;101477;297;22839;-31
2023/08/03 01:18:42;;;;;;;1.80;0.70;;;;;;;-98.94;19.20;19578.24;19565;298;8045113;-32
2023/08/03 01:21:09;;;;;;;2.30;0.80;;;;;;;-128.00;-1.00;-1.00;18476;298;7504607;-33
2023/08/03 01:23:35;;;;;;;1.00;0.60;;;;;;;-128.00;-1.00;-1.00;18851;297;7504765;-36
2023/08/03 01:26:01;;;;;;;1.40;0.60;;;;;;;-128.00;-1.00;-1.00;18876;297;7506219;-33
2023/08/03 01:28:28;;;;;;;0.80;0.50;;;;;;;-128.00;-1.00;-1.00;18881;349;7504465;-32
2023/08/03 01:30:54;;;;;;;2.80;1.00;;;;;;;-128.00;-1.00;-1.00;18884;305;7505318;-36
2023/08/03 01:33:20;;;;;;;2.80;0.90;;;;;;;-128.00;-1.00;-1.00;18874;297;7504582;-33
2023/08/03 01:35:46;;;;;;;1.60;0.80;;;;;;;-128.00;-1.00;-1.00;18854;286;7504077;-36
2023/08/03 01:38:13;;;;;;;2.00;0.60;;;;;;;-128.00;-1.00;-1.00;18871;296;7504500;-36
2023/08/03 01:40:40;;;;;;;2.10;0.50;;;;;;;-128.00;-1.00;-1.00;18457;297;7504819;-36
2023/08/03 01:43:06;;;;;;;2.70;0.30;;;;;;;-128.00;-1.00;-1.00;18455;297;7504633;-36
2023/08/03 01:45:32;;;;;;;0.70;0.40;;;;;;;-128.00;-1.00;-1.00;18445;290;7504935;-32
2023/08/03 01:47:58;;;;;;;1.20;0.50;;;;;;;-128.00;-1.00;-1.00;18487;297;7506327;-36
2023/08/03 01:50:24;;;;;;;1.20;0.90;;;;;;;-128.00;-1.00;-1.00;18860;313;7504961;-33
2023/08/03 01:52:50;;;;;;;1.40;0.60;;;;;;;-128.00;-1.00;-1.00;18870;297;7504889;-36
2023/08/03 01:55:16;;;;;;;0.90;0.60;;;;;;;-128.00;-1.00;-1.00;18848;297;7504698;-36
2023/08/03 01:57:44;;;;;;;1.30;0.70;;;;;;;-128.00;-1.00;-1.00;18867;297;7504839;-36
2023/08/03 02:00:10;;;;;;;0.80;0.70;;;;;;;-128.00;-1.00;-1.00;18450;297;7506192;-33
2023/08/03 02:02:35;;;;;;;1.00;0.90;;;;;;;-128.00;-1.00;-1.00;18462;297;7504660;-36
2023/08/03 02:05:02;;;;;;;0.80;0.60;;;;;;;-128.00;-1.00;-1.00;18861;309;7504182;-33
2023/08/03 02:07:44;;;;;;;1.10;0.50;;;;;;;-128.00;-1.00;-1.00;18488;297;7504528;-37
2023/08/03 02:10:10;;;;;;;5.80;0.80;;;;;;;-128.00;-1.00;-1.00;18466;297;7505838;-36
2023/08/03 02:12:36;;;;;;;1.20;0.60;;;;;;;-128.00;-1.00;-1.00;18458;297;7504833;-32
2023/08/03 02:15:04;;;;;;;1.10;0.60;;;;;;;-128.00;-1.00;-1.00;18448;297;7506066;-36
2023/08/03 02:17:30;;;;;;;2.20;1.00;;;;;;;-128.00;-1.00;-1.00;18469;296;7504400;-36
2023/08/03 02:19:55;;;;;;;6.30;0.90;;;;;;;-128.00;-1.00;-1.00;18467;285;7504848;-32
2023/08/03 02:22:21;;;;;;;0.80;0.60;;;;;;;-128.00;-1.00;-1.00;18489;285;7504667;-35
2023/08/03 02:24:47;;;;;;;0.70;0.60;;;;;;;-128.00;-1.00;-1.00;18469;297;7504754;-33
2023/08/03 02:27:13;;;;;;;5.10;0.90;;;;;;;-128.00;-1.00;-1.00;18447;297;7504530;-35
2023/08/03 02:29:39;;;;;;;3.40;1.00;;;;;;;-128.00;-1.00;-1.00;18851;289;7506331;-36
2023/08/03 02:32:05;;;;;;;4.20;0.70;;;;;;;-128.00;-1.00;-1.00;18847;297;7504357;-33
2023/08/03 02:34:31;;;;;;;6.70;1.00;;;;;;;-128.00;-1.00;-1.00;18450;285;7504426;-35
2023/08/03 02:36:57;;;;;;;0.60;0.60;;;;;;;-128.00;-1.00;-1.00;18465;337;7505959;-32
2023/08/03 02:39:23;;;;;;;0.90;0.60;;;;;;;-128.00;-1.00;-1.00;18868;289;7504645;-36
2023/08/03 02:41:49;;;;;;;0.70;0.40;;;;;;;-128.00;-1.00;-1.00;18851;324;7504709;-36
2023/08/03 02:44:15;;;;;;;1.90;0.80;;;;;;;-128.00;-1.00;-1.00;18866;308;7504547;-34
2023/08/03 02:46:41;;;;;;;3.60;0.90;;;;;;;-128.00;-1.00;-1.00;18867;297;7504867;-32
2023/08/03 02:49:08;;;;;;;1.10;0.60;;;;;;;-128.00;-1.00;-1.00;18880;297;7505393;-34
2023/08/03 02:51:34;;;;;;;0.80;0.50;;;;;;;-128.00;-1.00;-1.00;18874;320;7505520;-36
2023/08/03 02:54:00;;;;;;;6.20;1.90;;;;;;;-128.00;-1.00;-1.00;18859;285;7504791;-36
2023/08/03 02:56:26;;;;;;;1.30;0.60;;;;;;;-128.00;-1.00;-1.00;18875;336;7506227;-36
2023/08/03 02:58:54;;;;;;;2.10;0.60;;;;;;;-128.00;-1.00;-1.00;18868;348;7504986;-32
2023/08/03 03:01:19;;;;;;;1.40;0.80;;;;;;;-128.00;-1.00;-1.00;18448;297;7506334;-32
2023/08/03 03:03:45;;;;;;;2.90;0.80;;;;;;;-128.00;-1.00;-1.00;18441;341;7505285;-35
2023/08/03 03:06:11;;;;;;;1.00;0.50;;;;;;;-128.00;-1.00;-1.00;18479;285;7504962;-36
2023/08/03 03:08:37;;;;;;;1.00;0.60;;;;;;;-128.00;-1.00;-1.00;18849;298;7505191;-32
2023/08/03 03:11:03;;;;;;;2.10;0.90;;;;;;;-128.00;-1.00;-1.00;18862;297;7505958;-35
2023/08/03 03:13:29;;;;;;;1.10;0.50;;;;;;;-128.00;-1.00;-1.00;18863;297;7504876;-36
2023/08/03 03:15:55;;;;;;;2.60;0.60;;;;;;;-128.00;-1.00;-1.00;18859;285;7504401;-33
2023/08/03 03:18:21;;;;;;;1.80;0.40;;;;;;;-128.00;-1.00;-1.00;18859;297;7504522;-32
2023/08/03 03:20:47;;;;;;;0.90;0.50;;;;;;;-128.00;-1.00;-1.00;18861;297;7504898;-32
2023/08/03 03:23:14;;;;;;;0.80;0.50;;;;;;;-128.00;-1.00;-1.00;18884;341;7504276;-32
2023/08/03 03:25:40;;;;;;;2.10;0.80;;;;;;;-128.00;-1.00;-1.00;18854;297;7505579;-33
2023/08/03 03:28:06;;;;;;;1.10;0.70;;;;;;;-128.00;-1.00;-1.00;18480;297;7504926;-33
2023/08/03 03:30:32;;;;;;;0.70;0.50;;;;;;;-128.00;-1.00;-1.00;18467;289;7504957;-31
2023/08/03 03:32:57;;;;;;;1.00;0.90;;;;;;;-128.00;-1.00;-1.00;18456;296;7506198;-36
2023/08/03 03:35:23;;;;;;;1.60;0.70;;;;;;;-128.00;-1.00;-1.00;18469;297;7504419;-36
2023/08/03 03:37:49;;;;;;;1.00;0.60;;;;;;;-128.00;-1.00;-1.00;18864;297;7505103;-36
2023/08/03 03:40:15;;;;;;;1.50;0.80;;;;;;;-128.00;-1.00;-1.00;18836;297;7504438;-35
2023/08/03 03:42:42;;;;;;;0.90;0.70;;;;;;;-128.00;-1.00;-1.00;18863;285;7504326;-31
2023/08/03 03:45:08;;;;;;;12.60;1.00;;;;;;;-128.00;-1.00;-1.00;18864;348;7504361;-32
2023/08/03 03:47:34;;;;;;;1.60;0.70;;;;;;;-128.00;-1.00;-1.00;18869;297;7504423;-35
2023/08/03 03:50:00;;;;;;;1.90;0.70;;;;;;;-128.00;-1.00;-1.00;18849;297;7504944;-35
2023/08/03 03:52:26;;;;;;;1.20;0.70;;;;;;;-128.00;-1.00;-1.00;18851;297;7504797;-36
2023/08/03 03:54:52;;;;;;;1.70;0.60;;;;;;;-128.00;-1.00;-1.00;18853;285;7505173;-36
2023/08/03 03:57:19;;;;;;;1.90;0.70;;;;;;;-128.00;-1.00;-1.00;18867;297;7504404;-36
2023/08/03 03:59:45;;;;;;;1.00;0.50;;;;;;;-128.00;-1.00;-1.00;18870;306;7506304;-36
2023/08/03 04:02:11;;;;;;;0.70;0.50;;;;;;;-128.00;-1.00;-1.00;18867;296;7505917;-35
2023/08/03 04:04:37;;;;;;;0.70;0.50;;;;;;;-128.00;-1.00;-1.00;18483;297;7506310;-33
2023/08/03 04:07:03;;;;;;;0.90;0.60;;;;;;;-128.00;-1.00;-1.00;18449;299;7505024;-35
2023/08/03 04:09:28;;;;;;;1.60;0.80;;;;;;;-128.00;-1.00;-1.00;18458;296;7505173;-35
2023/08/03 04:11:54;;;;;;;0.60;0.40;;;;;;;-128.00;-1.00;-1.00;18448;285;7504419;-31
2023/08/03 04:14:20;;;;;;;3.10;0.90;;;;;;;-128.00;-1.00;-1.00;18873;289;7504190;-35
2023/08/03 04:16:47;;;;;;;1.10;0.60;;;;;;;-128.00;-1.00;-1.00;18855;320;7504513;-35
2023/08/03 04:19:13;;;;;;;1.50;0.60;;;;;;;-128.00;-1.00;-1.00;18863;308;7504313;-35
2023/08/03 04:21:39;;;;;;;1.60;0.80;;;;;;;-128.00;-1.00;-1.00;18875;297;7504645;-35
2023/08/03 04:24:05;;;;;;;1.30;0.70;;;;;;;-128.00;-1.00;-1.00;18863;348;7505160;-31
2023/08/03 04:26:32;;;;;;;1.30;0.70;;;;;;;-128.00;-1.00;-1.00;18871;297;7504358;-32
2023/08/03 04:28:58;;;;;;;0.90;0.60;;;;;;;-128.00;-1.00;-1.00;18446;285;7505193;-32
2023/08/03 04:31:27;;;;;;;2.90;0.50;;;;;;;-128.00;-1.00;-1.00;18461;297;7504984;-36
2023/08/03 04:33:53;;;;;;;1.30;0.60;;;;;;;-128.00;-1.00;-1.00;18478;297;7505158;-36
2023/08/03 04:36:18;;;;;;;1.20;0.60;;;;;;;-128.00;-1.00;-1.00;18438;298;7506264;-36
2023/08/03 04:38:44;;;;;;;2.20;1.10;;;;;;;-128.00;-1.00;-1.00;18456;349;7505184;-36
2023/08/03 04:41:10;;;;;;;0.80;0.50;;;;;;;-128.00;-1.00;-1.00;18454;298;7506488;-32
2023/08/03 04:43:36;;;;;;;13.00;4.70;;;;;;;-128.00;-1.00;-1.00;18851;285;7504557;-32
2023/08/03 04:46:02;;;;;;;1.20;0.50;;;;;;;-128.00;-1.00;-1.00;18842;305;7504919;-36
2023/08/03 04:48:28;;;;;;;3.30;0.60;;;;;;;-128.00;-1.00;-1.00;18854;297;7504716;-36
2023/08/03 04:50:55;;;;;;;1.50;0.60;;;;;;;-128.00;-1.00;-1.00;18862;285;7504329;-35
2023/08/03 04:53:21;;;;;;;1.20;0.60;;;;;;;-128.00;-1.00;-1.00;18888;285;7504319;-32
2023/08/03 04:55:47;;;;;;;10.20;0.70;;;;;;;-128.00;-1.00;-1.00;18865;289;7504681;-33
2023/08/03 04:58:13;;;;;;;1.00;0.60;;;;;;;-128.00;-1.00;-1.00;18867;289;7505712;-36
2023/08/03 05:00:39;;;;;;;1.30;0.80;;;;;;;-128.00;-1.00;-1.00;18870;299;7504810;-34
2023/08/03 05:03:06;;;;;;;1.90;0.90;;;;;;;-128.00;-1.00;-1.00;18843;285;7505011;-33
2023/08/03 05:05:32;;;;;;;1.20;0.80;;;;;;;-128.00;-1.00;-1.00;18873;297;7504069;-32
2023/08/03 05:07:58;;;;;;;1.90;0.80;;;;;;;-128.00;-1.00;-1.00;18859;297;7504942;-35
2023/08/03 05:10:24;;;;;;;1.60;0.90;;;;;;;-128.00;-1.00;-1.00;18867;285;7504960;-32
2023/08/03 05:12:50;;;;;;;2.20;0.50;;;;;;;-128.00;-1.00;-1.00;18853;297;7504198;-36
2023/08/03 05:15:17;;;;;;;1.30;0.50;;;;;;;-128.00;-1.00;-1.00;18891;289;7504726;-32
2023/08/03 05:17:43;;;;;;;8.60;1.20;;;;;;;-128.00;-1.00;-1.00;18864;285;7504790;-32
2023/08/03 05:20:10;;;;;;;0.90;0.60;;;;;;;-128.00;-1.00;-1.00;18893;285;7504149;-32
2023/08/03 05:22:36;;;;;;;1.90;0.60;;;;;;;-128.00;-1.00;-1.00;18877;285;7505302;-31
2023/08/03 05:25:03;;;;;;;0.70;0.60;;;;;;;-128.00;-1.00;-1.00;18869;297;7504368;-34
2023/08/03 05:27:28;;;;;;;2.90;1.30;;;;;;;-128.00;-1.00;-1.00;18478;297;7505713;-34
2023/08/03 05:29:55;;;;;;;1.60;0.90;;;;;;;-128.00;-1.00;-1.00;18463;297;7505166;-31
2023/08/03 05:32:24;;;;;;;1.00;0.60;;;;;;;-128.00;-1.00;-1.00;18453;289;7506227;-31
2023/08/03 05:34:50;;;;;;;1.00;0.60;;;;;;;-128.00;-1.00;-1.00;18512;285;7504299;-35
2023/08/03 05:37:16;;;;;;;1.40;0.80;;;;;;;-128.00;-1.00;-1.00;18870;348;7504387;-35
2023/08/03 05:39:42;;;;;;;1.70;0.60;;;;;;;-128.00;-1.00;-1.00;18867;297;7504222;-32
2023/08/03 05:42:12;;;;;;;1.70;0.60;;;;;;;-128.00;-1.00;-1.00;18857;285;7505338;-32
2023/08/03 05:44:38;;;;;;;0.50;0.30;;;;;;;-128.00;-1.00;-1.00;18445;297;7504335;-35
2023/08/03 05:47:05;;;;;;;1.90;0.80;;;;;;;-128.00;-1.00;-1.00;18476;285;7506295;-36
2023/08/03 05:49:31;;;;;;;1.10;0.50;;;;;;;-128.00;-1.00;-1.00;18451;297;7505888;-35
2023/08/03 05:51:57;;;;;;;1.70;1.00;;;;;;;-128.00;-1.00;-1.00;18444;285;7505161;-32
2023/08/03 05:54:22;;;;;;;4.80;0.60;;;;;;;-128.00;-1.00;-1.00;18474;332;7505404;-33
2023/08/03 05:56:48;;;;;;;3.50;0.80;;;;;;;-128.00;-1.00;-1.00;18466;285;7505853;-35
2023/08/03 05:59:26;;;;;;;1.30;0.70;;;;;;;-128.00;-1.00;-1.00;18881;297;7505278;-32
2023/08/03 06:01:52;;;;;;;1.00;0.70;;;;;;;-128.00;-1.00;-1.00;18499;310;7504804;-38
2023/08/03 06:04:18;;;;;;;3.70;1.00;;;;;;;-128.00;-1.00;-1.00;18445;320;7504741;-35
2023/08/03 06:06:44;;;;;;;1.90;1.20;;;;;;;-128.00;-1.00;-1.00;18449;297;7504652;-36
2023/08/03 06:09:11;;;;;;;1.90;1.00;;;;;;;-128.00;-1.00;-1.00;18483;297;7506690;-32
2023/08/03 06:11:37;;;;;;;1.40;0.70;;;;;;;-128.00;-1.00;-1.00;18511;297;7504078;-35
2023/08/03 06:14:05;;;;;;;0.70;0.50;;;;;;;-128.00;-1.00;-1.00;18453;296;7506339;-32
2023/08/03 06:16:30;;;;;;;5.40;0.70;;;;;;;-128.00;-1.00;-1.00;18455;285;7504659;-32
2023/08/03 06:18:58;;;;;;;1.40;0.80;;;;;;;-128.00;-1.00;-1.00;18458;296;7506683;-32
2023/08/03 06:21:30;;;;;;;1.30;1.10;;;;;;;-128.00;-1.00;-1.00;18463;334;7504676;-32
2023/08/03 06:23:57;;;;;;;3.10;0.90;;;;;;;-128.00;-1.00;-1.00;18865;297;7504923;-36
2023/08/03 06:26:23;;;;;;;1.00;0.80;;;;;;;-128.00;-1.00;-1.00;18461;289;7505072;-35
2023/08/03 06:28:49;;;;;;;1.30;0.60;;;;;;;-128.00;-1.00;-1.00;18456;289;7504599;-37
2023/08/03 06:31:20;;;;;;;2.40;0.90;;;;;;;-128.00;-1.00;-1.00;18862;309;7505150;-36
2023/08/03 06:33:46;;;;;;;1.60;0.70;;;;;;;-128.00;-1.00;-1.00;18469;289;7507001;-36
2023/08/03 06:36:19;;;;;;;2.30;1.00;;;;;;;-128.00;-1.00;-1.00;18462;296;7504755;-32
2023/08/03 06:38:45;;;;;;;1.40;0.50;;;;;;;-128.00;-1.00;-1.00;18447;285;7505248;-32
2023/08/03 06:41:11;;;;;;;1.60;0.70;;;;;;;-128.00;-1.00;-1.00;18436;332;7506019;-32
2023/08/03 06:43:37;;;;;;;1.00;0.70;;;;;;;-128.00;-1.00;-1.00;18437;289;7506187;-32
2023/08/03 06:46:04;;;;;;;2.30;0.80;;;;;;;-128.00;-1.00;-1.00;18470;297;7506195;-36
2023/08/03 06:48:32;;;;;;;1.20;0.70;;;;;;;-128.00;-1.00;-1.00;18447;297;7504533;-36
2023/08/03 06:50:58;;;;;;;1.30;0.70;;;;;;;-128.00;-1.00;-1.00;18472;297;7505968;-32
2023/08/03 06:53:24;;;;;;;0.80;0.60;;;;;;;-128.00;-1.00;-1.00;18452;289;7505023;-38
2023/08/03 06:55:49;;;;;;;1.70;0.70;;;;;;;-128.00;-1.00;-1.00;18447;286;7504614;-33
2023/08/03 06:58:17;;;;;;;0.90;0.80;;;;;;;-128.00;-1.00;-1.00;18471;337;7504758;-36
2023/08/03 07:00:44;;;;;;;1.60;0.80;;;;;;;-128.00;-1.00;-1.00;18457;297;7504985;-35
2023/08/03 07:03:10;;;;;;;1.00;0.80;;;;;;;-128.00;-1.00;-1.00;18484;296;7505987;-36
2023/08/03 07:05:36;;;;;;;1.30;0.80;;;;;;;-128.00;-1.00;-1.00;18474;285;7504324;-37
2023/08/03 07:08:02;;;;;;;1.60;0.90;;;;;;;-128.00;-1.00;-1.00;18855;312;7504783;-36
2023/08/03 07:10:28;;;;;;;1.20;0.90;;;;;;;-128.00;-1.00;-1.00;18456;299;7504168;-34
2023/08/03 07:12:54;;;;;;;2.80;1.50;;;;;;;-128.00;-1.00;-1.00;18496;285;7506861;-35
2023/08/03 07:15:20;;;;;;;1.40;0.60;;;;;;;-128.00;-1.00;-1.00;18465;296;7505803;-34
2023/08/03 07:17:46;;;;;;;1.20;0.90;;;;;;;-128.00;-1.00;-1.00;18477;285;7504464;-37
2023/08/03 07:20:12;;;;;;;3.10;1.20;;;;;;;-128.00;-1.00;-1.00;18452;285;7504874;-37
2023/08/03 07:22:37;;;;;;;5.20;1.00;;;;;;;-128.00;-1.00;-1.00;18445;297;7504881;-37
2023/08/03 07:25:04;;;;;;;1.40;1.00;;;;;;;-128.00;-1.00;-1.00;18478;296;7507407;-37
2023/08/03 07:27:30;;;;;;;1.50;0.80;;;;;;;-128.00;-1.00;-1.00;18459;289;7506537;-33
2023/08/03 07:29:56;;;;;;;1.30;0.60;;;;;;;-128.00;-1.00;-1.00;18482;285;7506038;-33
2023/08/03 07:32:23;;;;;;;1.40;0.40;;;;;;;-128.00;-1.00;-1.00;18476;297;7504480;-37
2023/08/03 07:34:48;;;;;;;0.80;0.50;;;;;;;-128.00;-1.00;-1.00;18452;285;7505259;-33
2023/08/03 07:37:14;;;;;;;1.70;0.70;;;;;;;-128.00;-1.00;-1.00;18850;296;7504403;-37
2023/08/03 07:39:41;;;;;;;1.70;0.80;;;;;;;-128.00;-1.00;-1.00;18869;285;7507399;-36
2023/08/03 07:42:07;;;;;;;1.90;0.70;;;;;;;-128.00;-1.00;-1.00;18856;299;7504401;-32
2023/08/03 07:44:33;;;;;;;2.50;0.70;;;;;;;-128.00;-1.00;-1.00;18845;297;7504389;-37
2023/08/03 07:47:00;;;;;;;2.30;0.80;;;;;;;-128.00;-1.00;-1.00;18855;289;7505183;-32
2023/08/03 07:49:28;;;;;;;1.40;0.50;;;;;;;-128.00;-1.00;-1.00;18445;348;7504709;-32
2023/08/03 07:51:53;;;;;;;1.10;0.40;;;;;;;-128.00;-1.00;-1.00;18473;297;7504533;-36
2023/08/03 07:54:19;;;;;;;0.90;0.60;;;;;;;-128.00;-1.00;-1.00;18465;296;7506109;-35
2023/08/03 07:56:45;;;;;;;1.80;0.80;;;;;;;-128.00;-1.00;-1.00;18442;289;7506276;-35
2023/08/03 07:59:11;;;;;;;2.00;0.60;;;;;;;-128.00;-1.00;-1.00;18473;297;7505811;-36
2023/08/03 08:01:37;;;;;;;14.40;1.00;;;;;;;-128.00;-1.00;-1.00;18429;285;7504476;-35
2023/08/03 08:04:03;;;;;;;0.90;0.60;;;;;;;-128.00;-1.00;-1.00;18452;337;7504771;-32
2023/08/03 08:06:29;;;;;;;1.60;0.90;;;;;;;-128.00;-1.00;-1.00;18457;297;7506704;-32
2023/08/03 08:08:55;;;;;;;8.80;0.70;;;;;;;-128.00;-1.00;-1.00;18848;299;7505343;-35
2023/08/03 08:11:22;;;;;;;1.90;0.60;;;;;;;-128.00;-1.00;-1.00;18851;285;7505717;-35
2023/08/03 08:13:48;;;;;;;2.50;1.00;;;;;;;-128.00;-1.00;-1.00;18894;297;7503976;-35
2023/08/03 08:16:15;;;;;;;1.20;0.60;;;;;;;-128.00;-1.00;-1.00;18866;297;7504772;-35
2023/08/03 08:18:40;;;;;;;0.80;0.60;;;;;;;-128.00;-1.00;-1.00;18480;297;7505805;-35
2023/08/03 08:21:11;;;;;;;5.10;0.80;;;;;;;-128.00;-1.00;-1.00;18476;299;7505050;-35
2023/08/03 08:23:37;;;;;;;2.60;0.80;;;;;;;-128.00;-1.00;-1.00;18491;296;7505933;-33
2023/08/03 08:26:15;;;;;;;1.70;0.50;;;;;;;-128.00;-1.00;-1.00;18453;297;7504230;-32
2023/08/03 08:28:41;;;;;;;1.00;0.60;;;;;;;-128.00;-1.00;-1.00;18467;297;7506803;-32
2023/08/03 08:31:08;;;;;;;3.10;0.70;;;;;;;-128.00;-1.00;-1.00;18463;285;7505774;-32
2023/08/03 08:33:34;;;;;;;9.50;0.80;;;;;;;-128.00;-1.00;-1.00;18445;298;7504640;-32
2023/08/03 08:35:59;;;;;;;1.70;0.60;;;;;;;-128.00;-1.00;-1.00;18451;297;7505211;-32
2023/08/03 08:38:25;;;;;;;2.40;0.50;;;;;;;-128.00;-1.00;-1.00;18467;285;7504442;-36
2023/08/03 08:40:51;;;;;;;2.10;0.80;;;;;;;-128.00;-1.00;-1.00;18444;348;7507615;-36
2023/08/03 08:43:20;;;;;;;3.10;0.50;;;;;;;-128.00;-1.00;-1.00;18460;289;7504755;-35
2023/08/03 08:45:46;;;;;;;1.20;0.50;;;;;;;-128.00;-1.00;-1.00;18467;324;7504650;-32
2023/08/03 08:48:11;;;;;;;1.20;0.50;;;;;;;-128.00;-1.00;-1.00;18450;285;7504329;-31
2023/08/03 08:50:37;;;;;;;2.30;0.60;;;;;;;-128.00;-1.00;-1.00;18458;297;7504979;-32
2023/08/03 08:53:03;;;;;;;1.80;0.80;;;;;;;-128.00;-1.00;-1.00;18462;285;7504968;-36
2023/08/03 08:55:29;;;;;;;0.40;0.30;;;;;;;-128.00;-1.00;-1.00;18452;297;7505943;-32
2023/08/03 08:57:55;;;;;;;6.00;2.10;;;;;;;-128.00;-1.00;-1.00;18481;296;7506053;-32
2023/08/03 09:00:24;;;;;;;4.70;0.40;;;;;;;-128.00;-1.00;-1.00;18478;285;7506235;-32
2023/08/03 09:02:54;;;;;;;4.30;0.80;;;;;;;-128.00;-1.00;-1.00;18441;304;7505619;-31
2023/08/03 09:05:20;;;;;;;1.60;0.50;;;;;;;-128.00;-1.00;-1.00;18452;297;7506684;-36
2023/08/03 09:07:59;;;;;;;2.10;0.50;;;;;;;-128.00;-1.00;-1.00;18448;285;7504135;-36
2023/08/03 09:10:25;;;;;;;1.00;0.70;;;;;;;-128.00;-1.00;-1.00;18452;297;7504108;-32
2023/08/03 09:12:50;;;;;;;0.90;0.60;;;;;;;-128.00;-1.00;-1.00;18454;285;7505976;-32
2023/08/03 09:15:16;;;;;;;5.00;1.10;;;;;;;-128.00;-1.00;-1.00;18893;296;7504348;-32
2023/08/03 09:17:46;;;;;;;2.70;1.10;;;;;;;-128.00;-1.00;-1.00;18872;348;7504363;-36
2023/08/03 09:20:27;;;;;;;1.30;0.60;;;;;;;-128.00;-1.00;-1.00;18466;348;7504594;-32
2023/08/03 09:22:53;;;;;;;4.10;1.00;;;;;;;-128.00;-1.00;-1.00;17905;322;7506285;-36
2023/08/03 09:25:18;;;;;;;5.10;0.90;;;;;;;-128.00;-1.00;-1.00;18427;296;7506905;-32
2023/08/03 09:27:49;;;;;;;4.20;1.60;;;;;;;-128.00;-1.00;-1.00;18477;297;7504358;-36
2023/08/03 09:30:14;;;;;;;1.50;0.60;;;;;;;-128.00;-1.00;-1.00;18504;296;7506439;-36
2023/08/03 09:32:40;;;;;;;1.80;0.80;;;;;;;-128.00;-1.00;-1.00;18470;297;7506505;-32
2023/08/03 09:35:25;;;;;;;3.00;0.80;;;;;;;-128.00;-1.00;-1.00;18462;296;7504840;-32
2023/08/03 09:37:53;;;;;;;1.10;0.60;;;;;;;-128.00;-1.00;-1.00;18473;289;7504568;-35
2023/08/03 09:40:19;;;;;;;2.20;0.40;;;;;;;-128.00;-1.00;-1.00;18478;297;7504644;-32
2023/08/03 09:42:47;;;;;;;3.50;0.70;;;;;;;-128.00;-1.00;-1.00;18482;296;7504807;-36
2023/08/03 09:45:12;;;;;;;1.30;0.70;;;;;;;-128.00;-1.00;-1.00;18447;309;7504315;-33
2023/08/03 09:47:39;;;;;;;0.30;0.30;;;;;;;-128.00;-1.00;-1.00;18446;297;7505299;-33
2023/08/03 09:50:06;;;;;;;1.60;0.50;;;;;;;-128.00;-1.00;-1.00;18459;308;7504685;-33
2023/08/03 09:52:46;;;;;;;0.60;0.50;;;;;;;-128.00;-1.00;-1.00;18442;297;7505386;-36
2023/08/03 09:55:14;;;;;;;5.10;0.80;;;;;;;-128.00;-1.00;-1.00;18431;297;7506275;-32
2023/08/03 09:57:43;;;;;;;0.90;0.50;;;;;;;-128.00;-1.00;-1.00;18457;289;7505769;-35
2023/08/03 10:00:11;;;;;;;1.40;0.60;;;;;;;-128.00;-1.00;-1.00;18469;312;7505947;-30
2023/08/03 10:02:49;;;;;;;4.80;0.50;;;;;;;-128.00;-1.00;-1.00;18471;289;7504612;-31
2023/08/03 10:05:18;;;;;;;1.80;0.80;;;;;;;-128.00;-1.00;-1.00;18464;297;7505015;-35
2023/08/03 10:07:51;;;;;;;5.40;0.40;;;;;;;-128.00;-1.00;-1.00;18473;331;7505639;-35
2023/08/03 10:10:17;;;;;;;7.00;0.50;;;;;;;-128.00;-1.00;-1.00;18459;339;7505757;-35
2023/08/03 10:12:44;;;;;;;0.80;0.50;;;;;;;-128.00;-1.00;-1.00;18487;285;7504428;-32
2023/08/03 10:15:10;;;;;;;1.60;0.60;;;;;;;-128.00;-1.00;-1.00;18471;297;7506474;-32
2023/08/03 10:17:38;;;;;;;1.70;0.60;;;;;;;-128.00;-1.00;-1.00;18456;289;7504348;-32
2023/08/03 10:20:05;;;;;;;0.90;0.50;;;;;;;-128.00;-1.00;-1.00;18465;297;7504968;-32
2023/08/03 10:22:31;;;;;;;1.50;0.40;;;;;;;-128.00;-1.00;-1.00;18459;297;7505066;-34
2023/08/03 10:25:16;;;;;;;4.70;0.70;;;;;;;-128.00;-1.00;-1.00;18466;289;7504756;-36
2023/08/03 10:28:14;;;;;;;13.00;0.60;;;;;;;-128.00;-1.00;-1.00;18462;289;7506050;-36
2023/08/03 10:31:03;;;;;;;1.40;1.20;;;;;;;-128.00;-1.00;-1.00;18451;310;7506022;-32
2023/08/03 10:34:01;;;;;;;3.80;1.00;;;;;;;-128.00;-1.00;-1.00;18444;289;7504194;-36
2023/08/03 10:36:40;;;;;;;2.10;0.60;;;;;;;-128.00;-1.00;-1.00;18464;348;7504751;-35
2023/08/03 10:39:07;;;;;;;1.30;0.50;;;;;;;-128.00;-1.00;-1.00;18455;296;7505638;-36
2023/08/03 10:41:38;;;;;;;0.70;0.60;;;;;;;-128.00;-1.00;-1.00;18452;289;7504662;-36
2023/08/03 10:44:23;;;;;;;3.00;0.50;;;;;;;-128.00;-1.00;-1.00;18478;297;7505037;-32
2023/08/03 10:46:50;;;;;;;0.80;0.40;;;;;;;-128.00;-1.00;-1.00;18466;297;7505912;-32
2023/08/03 10:49:48;;;;;;;0.50;0.30;;;;;;;-128.00;-1.00;-1.00;18453;297;7504766;-31
2023/08/03 10:52:19;;;;;;;3.10;0.40;;;;;;;-128.00;-1.00;-1.00;18495;289;7505616;-32
2023/08/03 10:54:45;;;;;;;2.60;0.50;;;;;;;-128.00;-1.00;-1.00;18474;285;7505995;-36
2023/08/03 10:57:12;;;;;;;1.20;0.30;;;;;;;-128.00;-1.00;-1.00;18466;285;7504902;-32
2023/08/03 10:59:39;;;;;;;2.00;0.50;;;;;;;-128.00;-1.00;-1.00;18461;289;7504447;-32
2023/08/03 11:02:21;;;;;;;1.50;0.70;;;;;;;-128.00;-1.00;-1.00;18456;297;7504998;-36
2023/08/03 11:04:50;;;;;;;2.80;1.00;;;;;;;-128.00;-1.00;-1.00;18446;285;7505955;-36
2023/08/03 11:07:19;;;;;;;1.70;0.60;;;;;;;-128.00;-1.00;-1.00;18463;285;7504736;-36
2023/08/03 11:09:48;;;;;;;0.90;0.30;;;;;;;-128.00;-1.00;-1.00;18442;285;7505172;-36
2023/08/03 11:12:16;;;;;;;2.50;0.30;;;;;;;-128.00;-1.00;-1.00;18443;285;7504342;-36
2023/08/03 11:14:44;;;;;;;3.00;0.50;;;;;;;-128.00;-1.00;-1.00;18453;285;7504320;-37
2023/08/03 11:17:10;;;;;;;1.10;0.50;;;;;;;-128.00;-1.00;-1.00;18437;310;7504303;-32
2023/08/03 11:19:39;;;;;;;1.60;0.60;;;;;;;-128.00;-1.00;-1.00;18456;297;7504589;-33
2023/08/03 11:22:05;;;;;;;1.00;0.30;;;;;;;-128.00;-1.00;-1.00;18454;297;7506168;-33
2023/08/03 11:24:31;;;;;;;10.50;0.50;;;;;;;-128.00;-1.00;-1.00;18421;312;7504308;-33
2023/08/03 11:26:58;;;;;;;1.20;0.50;;;;;;;-128.00;-1.00;-1.00;18483;348;7504909;-40
2023/08/03 11:29:24;;;;;;;0.40;0.30;;;;;;;-128.00;-1.00;-1.00;18483;297;7506314;-36
2023/08/03 11:31:50;;;;;;;1.40;0.80;;;;;;;-128.00;-1.00;-1.00;18459;297;7504845;-32
2023/08/03 11:34:16;;;;;;;1.40;0.40;;;;;;;-128.00;-1.00;-1.00;18463;297;7506510;-31
2023/08/03 11:36:48;;;;;;;1.70;0.80;;;;;;;-128.00;-1.00;-1.00;18468;297;7505043;-32
2023/08/03 11:39:14;;;;;;;2.90;0.50;;;;;;;-128.00;-1.00;-1.00;18479;348;7506151;-31
2023/08/03 11:41:40;;;;;;;0.80;0.30;;;;;;;-128.00;-1.00;-1.00;18461;285;7505389;-36
2023/08/03 11:44:08;;;;;;;5.80;0.60;;;;;;;-128.00;-1.00;-1.00;18460;285;7506318;-35
2023/08/03 11:46:34;;;;;;;1.30;0.20;;;;;;;-128.00;-1.00;-1.00;18483;297;7504865;-32
2023/08/03 11:49:01;;;;;;;2.80;0.60;;;;;;;-128.00;-1.00;-1.00;18852;289;7504729;-32
2023/08/03 11:51:33;;;;;;;1.00;0.50;;;;;;;-128.00;-1.00;-1.00;18463;296;7505307;-32
2023/08/03 11:54:05;;;;;;;2.00;0.50;;;;;;;-128.00;-1.00;-1.00;18460;296;7504301;-35
2023/08/03 11:56:34;;;;;;;0.70;0.40;;;;;;;-128.00;-1.00;-1.00;18460;289;7505359;-36
2023/08/03 11:59:02;;;;;;;1.40;0.50;;;;;;;-128.00;-1.00;-1.00;18474;285;7506021;-32
2023/08/03 12:01:28;;;;;;;1.70;0.80;;;;;;;-128.00;-1.00;-1.00;18430;300;7504388;-36
2023/08/03 12:04:06;;;;;;;1.30;0.50;;;;;;;-128.00;-1.00;-1.00;18458;289;7506522;-32
2023/08/03 12:06:51;;;;;;;0.60;0.60;;;;;;;-128.00;-1.00;-1.00;18476;308;7504390;-36
2023/08/03 12:09:25;;;;;;;0.90;0.60;;;;;;;-128.00;-1.00;-1.00;18474;297;7504691;-32
2023/08/03 12:12:00;;;;;;;1.50;0.40;;;;;;;-128.00;-1.00;-1.00;18467;289;7506358;-36
2023/08/03 12:14:26;;;;;;;2.90;0.50;;;;;;;-128.00;-1.00;-1.00;18474;288;7506191;-36
2023/08/03 12:16:51;;;;;;;5.30;0.70;;;;;;;-128.00;-1.00;-1.00;18455;319;7505599;-32
2023/08/03 12:19:18;;;;;;;5.00;0.70;;;;;;;-128.00;-1.00;-1.00;18499;285;7505083;-36
2023/08/03 12:21:44;;;;;;;4.60;0.50;;;;;;;-128.00;-1.00;-1.00;18462;297;7504587;-32
2023/08/03 12:24:10;;;;;;;1.90;0.30;;;;;;;-128.00;-1.00;-1.00;18867;297;7505239;-32